Portada
METAR-TAF:

METAR-TAF

Aeroports :

Skaka, Aràbia Saudita

latitud: 29-47N, longitud: 040-06E, altitud: 689 m

Observació

L'informe es va fer fa 1 hora i 7 minuts, a les 12:00 UTC
Vent 9 kt del Oest
Temperatura 41°C
Humitat 7%
Pressió 1010 hPa
Visibilitat 10 km o més
sense núvols per sota de 1500 mi sense presència de cumulonimbus.

METAR: OESK 291200Z 28009KT CAVOK 41/M02 Q1010 NOSIG

Hora: 16:07 (13:07 UTC)

Pronòstic

L'informe es va fer fa 2 hores i 7 minuts, a les 11:00 UTC
Pronòstic vàlid del 29 a les 12 UTC al 30 a les 18 UTC
Vent 10 kt del Oest
Visibilitat 10 km o més
sense núvols per sota de 1500 mi sense presència de cumulonimbus.
Evolucionant progressivament
l' 29 a les 16 UTC al 29 a les 18 UTC
Vent 3 kt amb direcció variable
Evolucionant progressivament
l' 29 a les 23 UTC al 30 a les 01 UTC
Vent 15 kt del Oest/Nord-Oest

TAF: OESK 291100Z 2912/3018 26010KT CAVOK BECMG 2916/2918 VRB03KT BECMG 2923/3001 30015KT

Observacions i pronòstics meteorològics de més de 4000 aeroports (METAR i TAF).

Les estacions disponibles són els punts grocs i vermells al mapa.

Posi el ratolí al punt desitjat per veure el nom de l'estació.

Feu clic per veure les observacions i els pronòstics meteorològics.

Per canviar el mapa: feu clic els botons verds amb una creu de color negre per apropar; al botó verd amb un guió per allunyar la imatge; o en les fletxes verdes per a mapes adjacents.


METAR-TAF: